Time;durP1;ratioP1;P1;durP2;ratioP2;P2;SDS_P1;SDS_P2;PMS_P1;PMS_P2;Temp;Humidity;BMP_temperature;BMP_pressure;BME280_temperature;BME280_humidity;BME280_pressure;Samples;Min_cycle;Max_cycle;Signal;HPM_P1;HPM_P2
2022/11/06 00:04:30;;;;;;;17.67;14.32;;;22.50;58.70;;;;;;4933189;55;21001;-38
2022/11/06 00:09:32;;;;;;;16.60;14.70;;;22.50;58.60;;;;;;4978184;55;21045;-37
2022/11/06 00:14:34;;;;;;;17.20;14.93;;;22.50;58.70;;;;;;4781350;55;21464;-37
2022/11/06 00:19:35;;;;;;;15.90;14.15;;;22.50;58.70;;;;;;5058242;55;21491;-36
2022/11/06 00:24:36;;;;;;;15.60;13.95;;;22.50;58.70;;;;;;4764230;55;21054;-28
2022/11/06 00:29:36;;;;;;;16.15;13.85;;;22.50;58.70;;;;;;4745129;59;21115;-29
2022/11/06 00:34:37;;;;;;;16.77;13.90;;;22.50;58.80;;;;;;4745412;59;21066;-32
2022/11/06 00:39:38;;;;;;;16.33;14.45;;;22.50;58.80;;;;;;4822982;55;21528;-30
2022/11/06 00:44:39;;;;;;;14.60;13.00;;;22.50;58.80;;;;;;4854383;55;21066;-39
2022/11/06 00:49:39;;;;;;;16.80;14.45;;;22.50;58.80;;;;;;4884525;55;21033;-37
2022/11/06 00:54:40;;;;;;;14.93;13.18;;;22.50;58.90;;;;;;4997948;55;21539;-42
2022/11/06 00:59:41;;;;;;;15.38;13.43;;;22.50;58.80;;;;;;4772782;55;21549;-46
2022/11/06 01:04:42;;;;;;;15.25;13.60;;;22.50;58.80;;;;;;5189457;55;20994;-41
2022/11/06 01:09:43;;;;;;;14.13;12.57;;;22.50;58.80;;;;;;4891840;55;21018;-39
2022/11/06 01:14:44;;;;;;;13.98;12.52;;;22.50;58.90;;;;;;4745781;59;21481;-47
2022/11/06 01:19:45;;;;;;;14.55;12.48;;;22.40;58.90;;;;;;4755202;55;21054;-36
2022/11/06 01:24:46;;;;;;;15.80;13.13;;;22.50;59.00;;;;;;4972359;55;21107;-38
2022/11/06 01:29:46;;;;;;;14.85;12.37;;;22.40;58.90;;;;;;4841645;55;21077;-37
2022/11/06 01:34:49;;;;;;;14.18;11.90;;;22.40;58.80;;;;;;4970014;55;21065;-46
2022/11/06 01:39:50;;;;;;;13.45;11.77;;;22.40;58.90;;;;;;4901199;55;21001;-43
2022/11/06 01:45:32;;;;;;;14.75;12.93;;;22.40;58.90;;;;;;4788587;55;21130;-34
2022/11/06 01:50:34;;;;;;;12.93;11.30;;;22.40;58.90;;;;;;4981872;55;21077;-39
2022/11/06 01:55:41;;;;;;;13.27;11.88;;;22.40;59.00;;;;;;4796965;55;21030;-30
2022/11/06 02:00:43;;;;;;;12.73;11.18;;;22.40;59.60;;;;;;4832892;55;21058;-33
2022/11/06 02:05:44;;;;;;;12.43;11.12;;;22.40;58.90;;;;;;4745837;55;21006;-45
2022/11/06 02:10:46;;;;;;;12.63;11.32;;;22.40;58.90;;;;;;4811348;55;21025;-40
2022/11/06 02:16:02;;;;;;;12.25;10.93;;;22.40;59.00;;;;;;4745669;59;21050;-47
2022/11/06 02:22:03;;;;;;;12.60;10.97;;;22.40;58.90;;;;;;4782532;55;21069;-41
2022/11/06 02:27:12;;;;;;;12.37;11.07;;;22.40;58.90;;;;;;4795046;55;21013;-36
2022/11/06 02:32:19;;;;;;;12.98;11.02;;;22.40;59.00;;;;;;4782660;55;21030;-29
2022/11/06 02:37:28;;;;;;;11.70;10.17;;;22.40;59.00;;;;;;5231679;55;21085;-37
2022/11/06 02:42:31;;;;;;;12.57;11.25;;;22.40;59.10;;;;;;4983923;55;21054;-46
2022/11/06 02:47:33;;;;;;;11.77;10.35;;;22.40;59.10;;;;;;5076520;55;21053;-44
2022/11/06 02:53:01;;;;;;;11.95;9.77;;;22.40;59.00;;;;;;4797482;55;21078;-41
2022/11/06 02:58:25;;;;;;;10.93;9.82;;;22.40;59.10;;;;;;4811123;55;21053;-39
2022/11/06 03:03:29;;;;;;;10.55;9.45;;;22.40;59.00;;;;;;4810727;55;21050;-44
2022/11/06 03:08:39;;;;;;;12.02;10.43;;;22.40;59.10;;;;;;4745452;55;21081;-44
2022/11/06 03:14:20;;;;;;;11.88;10.50;;;22.40;59.10;;;;;;4745437;59;21073;-42
2022/11/06 03:20:59;;;;;;;11.07;9.73;;;22.40;59.20;;;;;;4784890;55;21095;-41
2022/11/06 03:26:18;;;;;;;10.77;9.65;;;22.40;58.90;;;;;;5231299;55;21006;-29
2022/11/06 03:31:30;;;;;;;10.38;9.27;;;22.40;59.10;;;;;;4878405;55;21053;-32
2022/11/06 03:36:40;;;;;;;9.93;8.93;;;22.40;59.00;;;;;;4857920;55;21010;-31
2022/11/06 03:42:05;;;;;;;10.77;9.57;;;22.40;59.20;;;;;;4818042;55;21596;-39
2022/11/06 03:47:17;;;;;;;10.00;9.00;;;22.40;59.00;;;;;;4859257;55;21014;-37
2022/11/06 03:52:30;;;;;;;10.65;8.85;;;22.40;59.10;;;;;;4745828;59;20998;-44
2022/11/06 03:57:52;;;;;;;9.70;8.45;;;22.40;59.00;;;;;;5230981;55;21002;-39
2022/11/06 04:03:06;;;;;;;10.88;9.27;;;22.40;59.20;;;;;;4804269;55;21122;-41
2022/11/06 04:18:51;;;;;;;9.60;8.60;;;22.40;59.20;;;;;;4744311;55;21050;-39
2022/11/06 04:27:50;;;;;;;9.73;8.25;;;22.40;59.30;;;;;;4758574;55;21010;-38
2022/11/06 04:33:18;;;;;;;9.10;8.20;;;22.40;58.90;;;;;;4973758;55;21093;-44
2022/11/06 04:45:11;;;;;;;8.73;7.82;;;22.40;59.30;;;;;;4745377;59;21013;-48
2022/11/06 04:50:14;;;;;;;8.50;7.60;;;22.40;59.20;;;;;;5048251;55;21134;-38
2022/11/06 04:55:17;;;;;;;8.52;7.62;;;22.40;59.20;;;;;;4954512;55;21052;-38
2022/11/06 05:00:23;;;;;;;8.85;7.70;;;22.40;59.10;;;;;;4920881;55;21049;-30
2022/11/06 05:05:26;;;;;;;9.00;7.72;;;22.40;59.10;;;;;;4745787;59;21045;-39
2022/11/06 05:10:26;;;;;;;8.10;7.30;;;22.40;59.20;;;;;;4930573;55;21480;-32
2022/11/06 05:15:27;;;;;;;8.60;7.62;;;22.40;59.30;;;;;;4786124;55;21005;-29
2022/11/06 05:20:28;;;;;;;8.05;7.25;;;22.30;59.20;;;;;;4965927;55;21061;-31
2022/11/06 05:25:38;;;;;;;8.20;7.22;;;22.40;59.30;;;;;;4922857;55;21062;-29
2022/11/06 05:30:39;;;;;;;8.10;7.30;;;22.40;59.10;;;;;;4744269;59;21481;-41
2022/11/06 05:35:40;;;;;;;8.10;7.28;;;22.50;59.30;;;;;;4770672;55;21030;-44
2022/11/06 05:40:41;;;;;;;7.70;6.87;;;22.40;59.40;;;;;;4745362;55;21062;-49
2022/11/06 05:45:42;;;;;;;7.60;6.80;;;22.30;59.30;;;;;;4832417;55;21051;-45
2022/11/06 05:50:42;;;;;;;7.28;6.28;;;22.40;59.20;;;;;;4806182;55;21078;-45
2022/11/06 05:55:46;;;;;;;7.60;6.28;;;22.30;59.30;;;;;;4849478;55;21002;-46
2022/11/06 06:00:47;;;;;;;8.73;7.35;;;22.40;59.50;;;;;;4754015;55;21062;-42
2022/11/06 06:05:48;;;;;;;7.40;6.65;;;22.40;59.40;;;;;;4968214;55;21013;-48
2022/11/06 06:10:49;;;;;;;7.85;7.05;;;22.50;59.50;;;;;;4820473;55;21086;-37
2022/11/06 06:15:50;;;;;;;7.43;6.60;;;22.30;59.30;;;;;;4833785;55;21655;-40
2022/11/06 06:20:50;;;;;;;7.50;6.70;;;22.30;59.30;;;;;;4745464;59;21049;-42
2022/11/06 06:25:51;;;;;;;7.57;6.78;;;22.40;59.40;;;;;;4769051;55;21006;-39
2022/11/06 06:30:52;;;;;;;7.15;6.43;;;22.40;59.40;;;;;;4744851;59;21025;-33
2022/11/06 06:35:53;;;;;;;7.43;6.60;;;22.40;59.40;;;;;;4745386;59;21085;-41
2022/11/06 06:40:54;;;;;;;7.57;6.50;;;22.30;59.30;;;;;;4765304;55;21615;-36
2022/11/06 06:45:58;;;;;;;6.97;6.22;;;22.30;59.30;;;;;;4861993;55;21483;-37
2022/11/06 06:51:00;;;;;;;7.20;6.22;;;22.40;59.40;;;;;;4744714;59;20980;-48
2022/11/06 06:56:01;;;;;;;7.05;6.35;;;22.30;59.40;;;;;;4745767;59;21037;-35
2022/11/06 07:01:04;;;;;;;7.10;6.30;;;22.40;59.50;;;;;;5043255;55;21010;-40
2022/11/06 07:06:06;;;;;;;7.22;5.87;;;22.30;59.50;;;;;;5014923;55;21054;-49
2022/11/06 07:11:09;;;;;;;6.62;5.72;;;22.30;59.30;;;;;;4744576;56;21475;-38
2022/11/06 07:16:10;;;;;;;7.07;6.37;;;22.30;59.40;;;;;;4915615;55;21026;-43
2022/11/06 07:21:12;;;;;;;7.78;6.40;;;22.30;59.40;;;;;;4850000;55;21515;-45
2022/11/06 07:26:13;;;;;;;7.15;6.45;;;22.30;59.40;;;;;;4844095;55;21058;-45
2022/11/06 07:31:15;;;;;;;6.82;5.85;;;22.30;59.50;;;;;;4744671;59;21086;-32
2022/11/06 07:36:16;;;;;;;6.53;5.90;;;22.30;59.40;;;;;;4768024;55;21045;-41
2022/11/06 07:41:17;;;;;;;6.62;5.93;;;22.30;59.40;;;;;;4810910;55;21065;-41
2022/11/06 07:46:17;;;;;;;7.25;6.50;;;22.30;59.40;;;;;;4745762;59;21049;-43
2022/11/06 07:51:18;;;;;;;6.32;5.72;;;22.30;59.40;;;;;;4830555;55;21559;-40
2022/11/06 07:56:19;;;;;;;7.25;6.55;;;22.30;59.50;;;;;;4889174;55;21524;-32
2022/11/06 08:01:20;;;;;;;7.10;6.40;;;22.30;59.50;;;;;;4842372;55;21131;-41
2022/11/06 08:06:21;;;;;;;7.57;6.35;;;22.30;59.40;;;;;;4751827;55;21139;-36
2022/11/06 08:11:22;;;;;;;7.47;6.20;;;22.30;59.40;;;;;;4880247;55;21114;-41
2022/11/06 08:16:23;;;;;;;7.47;6.45;;;22.30;59.40;;;;;;4855739;55;21532;-48
2022/11/06 08:21:23;;;;;;;7.25;6.55;;;22.30;59.40;;;;;;5230933;55;21054;-40
2022/11/06 08:26:25;;;;;;;8.85;6.37;;;22.30;59.40;;;;;;4780339;55;21086;-34
2022/11/06 08:31:25;;;;;;;7.82;6.75;;;22.30;59.30;;;;;;4988797;55;21895;-34
2022/11/06 08:36:26;;;;;;;8.43;6.65;;;22.30;59.30;;;;;;4776732;55;21045;-34
2022/11/06 08:41:27;;;;;;;8.57;6.75;;;22.30;59.30;;;;;;4745344;59;21122;-31
2022/11/06 08:46:28;;;;;;;9.45;7.32;;;22.30;59.40;;;;;;4745475;59;21046;-33
2022/11/06 08:51:29;;;;;;;8.50;7.35;;;22.30;59.30;;;;;;4844262;55;21058;-31
2022/11/06 08:56:29;;;;;;;7.87;7.07;;;22.30;59.30;;;;;;4809977;55;21547;-31
2022/11/06 09:01:30;;;;;;;8.88;7.35;;;22.30;59.30;;;;;;4751716;55;21065;-30
2022/11/06 09:06:31;;;;;;;7.82;7.03;;;22.30;59.20;;;;;;4801334;55;21135;-30
2022/11/06 09:11:32;;;;;;;8.77;7.87;;;22.30;59.30;;;;;;4857818;55;21132;-29
2022/11/06 09:16:33;;;;;;;8.93;8.02;;;22.30;59.30;;;;;;4862843;55;21094;-34
2022/11/06 09:21:34;;;;;;;10.48;8.52;;;22.30;59.20;;;;;;4840463;55;21476;-28
2022/11/06 09:26:35;;;;;;;10.45;8.43;;;22.30;59.30;;;;;;4814931;55;21458;-36
2022/11/06 09:31:36;;;;;;;10.20;8.98;;;22.30;59.30;;;;;;4839355;55;21083;-30
2022/11/06 09:36:36;;;;;;;11.00;9.30;;;22.60;59.40;;;;;;4746184;55;20986;-29
2022/11/06 09:42:29;;;;;;;10.02;8.98;;;22.30;58.90;;;;;;4745440;59;21009;-39
2022/11/06 09:47:37;;;;;;;12.45;10.40;;;22.30;59.20;;;;;;4819105;55;21014;-41
2022/11/06 09:52:49;;;;;;;16.10;10.82;;;22.30;59.30;;;;;;4745667;59;21002;-37
2022/11/06 09:57:58;;;;;;;12.40;10.82;;;22.30;59.10;;;;;;4751853;55;21437;-39
2022/11/06 10:03:07;;;;;;;15.27;12.32;;;22.30;59.10;;;;;;4779347;55;21053;-38
2022/11/06 10:08:21;;;;;;;15.30;12.57;;;22.30;59.30;;;;;;4745321;59;21010;-34
2022/11/06 10:14:30;;;;;;;14.85;12.95;;;22.30;59.40;;;;;;4828406;55;21464;-38
2022/11/06 10:19:51;;;;;;;16.98;14.13;;;22.30;59.20;;;;;;4850505;55;21014;-31
2022/11/06 10:25:18;;;;;;;17.90;15.02;;;22.30;59.20;;;;;;4745520;55;20982;-34
2022/11/06 10:30:20;;;;;;;20.83;16.12;;;22.30;59.20;;;;;;4772936;55;21113;-32
2022/11/06 10:35:39;;;;;;;18.92;16.23;;;22.30;59.40;;;;;;4866808;55;21464;-32
2022/11/06 10:40:43;;;;;;;19.67;15.55;;;22.30;59.40;;;;;;4796389;55;21038;-37
2022/11/06 10:45:51;;;;;;;19.25;15.80;;;22.30;59.40;;;;;;4745138;55;21002;-41
2022/11/06 10:54:36;;;;;;;19.80;16.25;;;22.30;59.40;;;;;;4744749;55;21559;-33
2022/11/06 10:59:37;;;;;;;20.43;16.97;;;22.20;59.20;;;;;;4776504;55;21074;-38
2022/11/06 11:04:37;;;;;;;20.90;17.58;;;22.30;59.40;;;;;;4745333;59;20994;-31
2022/11/06 11:09:39;;;;;;;23.05;18.08;;;22.30;59.40;;;;;;4838314;55;21611;-36
2022/11/06 11:14:40;;;;;;;24.12;18.92;;;22.30;59.40;;;;;;4902628;55;21463;-35
2022/11/06 11:19:42;;;;;;;23.05;19.48;;;22.20;59.30;;;;;;4764980;55;21053;-31
2022/11/06 11:25:05;;;;;;;23.98;19.80;;;22.30;59.40;;;;;;4781963;55;21468;-34
2022/11/06 11:30:19;;;;;;;22.95;19.25;;;22.20;59.40;;;;;;4819754;55;21129;-38
2022/11/06 11:35:25;;;;;;;24.90;21.02;;;22.30;59.60;;;;;;4745584;59;20978;-40
2022/11/06 11:40:36;;;;;;;25.17;20.05;;;22.20;59.40;;;;;;4761292;55;21006;-38
2022/11/06 11:45:37;;;;;;;24.85;20.88;;;22.30;59.50;;;;;;4745411;59;21008;-29
2022/11/06 11:50:38;;;;;;;24.52;20.37;;;22.30;59.50;;;;;;4744848;55;21592;-36
2022/11/06 11:55:44;;;;;;;25.77;21.15;;;22.30;59.50;;;;;;4883172;55;20982;-36
2022/11/06 12:00:57;;;;;;;26.00;22.17;;;22.30;59.50;;;;;;4829700;55;21494;-36
2022/11/06 12:06:10;;;;;;;28.12;22.83;;;22.20;59.40;;;;;;4883381;55;21157;-38
2022/11/06 12:11:18;;;;;;;25.80;21.52;;;22.20;59.50;;;;;;4744451;59;21495;-39
2022/11/06 12:16:19;;;;;;;27.80;23.10;;;22.30;59.50;;;;;;4900025;55;21038;-31
2022/11/06 12:21:32;;;;;;;29.98;23.20;;;22.30;59.50;;;;;;4834792;55;21006;-35
2022/11/06 12:27:13;;;;;;;28.40;23.52;;;22.30;59.40;;;;;;4745165;59;21010;-29
2022/11/06 12:33:19;;;;;;;27.50;23.35;;;22.30;59.50;;;;;;4780096;55;20986;-31
2022/11/06 12:40:27;;;;;;;28.02;23.92;;;22.30;59.70;;;;;;4770955;55;20982;-33
2022/11/06 12:53:37;;;;;;;29.67;23.95;;;22.30;59.40;;;;;;4802241;55;21014;-35
2022/11/06 12:58:57;;;;;;;31.75;25.37;;;22.20;59.40;;;;;;4838609;55;21460;-38
2022/11/06 13:07:26;;;;;;;29.83;24.83;;;22.30;59.60;;;;;;4811571;55;21006;-30
2022/11/06 13:12:40;;;;;;;30.08;24.83;;;22.30;59.50;;;;;;4776231;55;21524;-33
2022/11/06 13:17:52;;;;;;;28.90;25.17;;;22.30;59.80;;;;;;4744938;59;21560;-30
2022/11/06 13:26:19;;;;;;;31.75;26.60;;;22.30;59.70;;;;;;4888646;55;21050;-36
2022/11/06 13:31:24;;;;;;;33.67;26.52;;;22.30;59.50;;;;;;4764677;55;21090;-34
2022/11/06 13:36:27;;;;;;;35.75;27.90;;;22.30;59.70;;;;;;4745554;55;21061;-29
2022/11/06 13:41:30;;;;;;;33.33;27.02;;;22.20;59.70;;;;;;4778901;55;21002;-39
2022/11/06 13:47:07;;;;;;;34.00;27.55;;;22.20;59.70;;;;;;4765725;55;21057;-39
2022/11/06 13:54:08;;;;;;;35.15;27.52;;;22.30;59.60;;;;;;4879119;55;20994;-40
2022/11/06 13:59:26;;;;;;;36.38;29.08;;;22.30;60.00;;;;;;4918608;55;20998;-37
2022/11/06 14:05:05;;;;;;;37.15;31.12;;;22.30;59.90;;;;;;4775472;55;21046;-36
2022/11/06 14:10:20;;;;;;;37.38;30.20;;;22.30;60.10;;;;;;4874417;55;21572;-32
2022/11/06 14:15:29;;;;;;;37.95;31.08;;;22.30;59.90;;;;;;4980209;55;21058;-35
2022/11/06 14:20:36;;;;;;;35.45;29.75;;;22.20;59.90;;;;;;4745753;59;20990;-34
2022/11/06 14:26:02;;;;;;;33.88;29.10;;;22.30;59.90;;;;;;4777006;55;20994;-30
2022/11/06 14:31:03;;;;;;;35.53;29.67;;;22.30;59.70;;;;;;4913675;55;21006;-34
2022/11/06 14:38:51;;;;;;;35.63;30.15;;;22.30;59.90;;;;;;4749883;55;21057;-39
2022/11/06 14:43:53;;;;;;;39.05;31.35;;;22.30;59.80;;;;;;4799687;55;21018;-39
2022/11/06 14:49:06;;;;;;;37.60;31.77;;;22.30;59.90;;;;;;4748868;55;21061;-32
2022/11/06 14:54:21;;;;;;;38.38;32.45;;;22.20;59.80;;;;;;4798878;55;21471;-40
2022/11/06 14:59:34;;;;;;;38.20;31.50;;;22.30;59.90;;;;;;4800191;55;20974;-35
2022/11/06 15:04:35;;;;;;;36.10;30.02;;;22.20;59.80;;;;;;4778656;55;20982;-38
2022/11/06 15:09:46;;;;;;;36.33;31.10;;;22.30;59.80;;;;;;4785507;55;20998;-35
2022/11/06 15:15:01;;;;;;;37.22;30.77;;;22.20;59.90;;;;;;4921999;55;21500;-43
2022/11/06 15:20:12;;;;;;;40.10;32.10;;;22.30;59.80;;;;;;4773743;55;21002;-33
2022/11/06 15:25:22;;;;;;;35.28;30.12;;;22.20;59.70;;;;;;4895245;55;21002;-30
2022/11/06 15:30:25;;;;;;;37.42;30.92;;;22.30;59.90;;;;;;4829988;55;20997;-35
2022/11/06 15:35:32;;;;;;;37.83;31.17;;;22.30;59.80;;;;;;4777566;55;21452;-29
2022/11/06 15:40:38;;;;;;;37.10;30.50;;;22.20;59.80;;;;;;4745537;59;21051;-34
2022/11/06 15:45:39;;;;;;;41.22;32.22;;;22.20;59.80;;;;;;4934883;55;21038;-35
2022/11/06 15:50:42;;;;;;;38.92;31.12;;;22.20;59.70;;;;;;4764598;55;21086;-36
2022/11/06 15:55:53;;;;;;;36.58;31.10;;;22.20;59.80;;;;;;4960098;55;21105;-40
2022/11/06 16:00:54;;;;;;;37.30;31.05;;;22.20;59.60;;;;;;4790876;55;20991;-37
2022/11/06 16:05:57;;;;;;;37.45;30.75;;;22.20;59.70;;;;;;4745493;59;21049;-34
2022/11/06 16:11:00;;;;;;;37.40;30.88;;;22.20;59.70;;;;;;4808988;55;21500;-36
2022/11/06 16:16:02;;;;;;;37.17;30.73;;;22.20;59.70;;;;;;4801259;55;21018;-37
2022/11/06 16:21:21;;;;;;;37.08;30.90;;;22.10;59.70;;;;;;4831642;55;21006;-36
2022/11/06 16:26:44;;;;;;;37.75;30.45;;;22.20;59.80;;;;;;4773311;55;21022;-39
2022/11/06 16:31:47;;;;;;;35.90;30.20;;;22.20;59.70;;;;;;4939544;55;21026;-33
2022/11/06 16:37:03;;;;;;;38.30;31.85;;;22.20;59.70;;;;;;4792711;55;20982;-33
2022/11/06 16:42:37;;;;;;;35.83;30.00;;;22.20;59.60;;;;;;4745232;59;21051;-32
2022/11/06 16:47:38;;;;;;;37.70;30.70;;;22.20;59.70;;;;;;4835541;55;21492;-33
2022/11/06 16:52:39;;;;;;;38.65;32.15;;;22.20;59.80;;;;;;4860303;55;21022;-39
2022/11/06 16:57:58;;;;;;;36.22;30.05;;;22.20;59.70;;;;;;4769163;55;21511;-38
2022/11/06 17:03:02;;;;;;;38.67;30.98;;;22.20;59.70;;;;;;4745264;59;21065;-33
2022/11/06 17:08:21;;;;;;;37.05;31.80;;;22.20;59.70;;;;;;4813354;55;21014;-35
2022/11/06 17:13:30;;;;;;;35.75;30.02;;;22.20;59.50;;;;;;4896422;55;21532;-38
2022/11/06 17:18:35;;;;;;;37.80;31.00;;;22.20;59.70;;;;;;4744009;59;21024;-31
2022/11/06 17:23:36;;;;;;;36.30;31.27;;;22.20;60.20;;;;;;4843929;55;21631;-39
2022/11/06 17:28:37;;;;;;;35.60;30.25;;;22.30;59.70;;;;;;4744682;59;21005;-36
2022/11/06 17:33:39;;;;;;;38.35;31.27;;;22.20;59.60;;;;;;4844216;55;21018;-31
2022/11/06 17:38:40;;;;;;;36.63;30.40;;;22.20;59.60;;;;;;4745162;59;21448;-41
2022/11/06 17:43:41;;;;;;;37.85;30.12;;;22.20;60.30;;;;;;4744914;59;20999;-34
2022/11/06 17:48:42;;;;;;;34.50;29.92;;;22.20;59.60;;;;;;4744810;59;21529;-36
2022/11/06 17:53:42;;;;;;;37.00;30.12;;;22.20;59.60;;;;;;5029911;55;21555;-36
2022/11/06 17:58:43;;;;;;;35.53;30.50;;;22.30;59.60;;;;;;4765039;55;21109;-41
2022/11/06 18:03:44;;;;;;;34.78;30.30;;;22.20;59.60;;;;;;4820705;55;21078;-32
2022/11/06 18:08:45;;;;;;;36.10;30.30;;;22.20;59.60;;;;;;4907040;55;21022;-36
2022/11/06 18:13:46;;;;;;;37.47;30.88;;;22.20;59.60;;;;;;4809424;55;21575;-41
2022/11/06 18:18:50;;;;;;;35.70;30.08;;;22.20;59.60;;;;;;4779407;55;21006;-38
2022/11/06 18:23:51;;;;;;;38.05;31.65;;;22.20;59.70;;;;;;5012200;55;21526;-31
2022/11/06 18:28:52;;;;;;;39.63;31.87;;;22.20;59.60;;;;;;5022606;55;21599;-38
2022/11/06 18:33:53;;;;;;;37.60;31.27;;;22.20;59.70;;;;;;4818241;55;21078;-34
2022/11/06 18:38:53;;;;;;;39.25;32.05;;;22.20;59.70;;;;;;4917733;55;21072;-31
2022/11/06 18:43:58;;;;;;;37.55;32.47;;;22.20;59.50;;;;;;4745827;55;21010;-35
2022/11/06 18:48:59;;;;;;;36.22;30.88;;;22.20;59.60;;;;;;4752331;55;21548;-50
2022/11/06 18:54:03;;;;;;;38.22;30.62;;;22.20;59.50;;;;;;4867198;55;21018;-43
2022/11/06 18:59:11;;;;;;;36.38;31.12;;;22.10;59.70;;;;;;4897521;55;21452;-34
2022/11/06 19:04:12;;;;;;;38.00;31.62;;;22.30;59.60;;;;;;4745424;55;21547;-41
2022/11/06 19:09:13;;;;;;;38.13;31.77;;;22.20;60.20;;;;;;4757256;55;21110;-32
2022/11/06 19:14:14;;;;;;;38.05;31.17;;;22.20;59.50;;;;;;4745251;59;20994;-41
2022/11/06 19:19:15;;;;;;;36.80;30.35;;;22.20;59.50;;;;;;4908534;55;20990;-39
2022/11/06 19:24:15;;;;;;;36.15;31.30;;;22.20;59.80;;;;;;4794568;55;21061;-38
2022/11/06 19:29:16;;;;;;;36.72;31.42;;;22.30;59.70;;;;;;4824288;55;21009;-41
2022/11/06 19:34:19;;;;;;;38.30;31.05;;;22.10;59.50;;;;;;4774639;55;20978;-35
2022/11/06 19:39:20;;;;;;;38.47;31.25;;;22.20;59.70;;;;;;4745666;59;21505;-36
2022/11/06 19:44:21;;;;;;;39.47;31.92;;;22.10;59.50;;;;;;4816879;55;21073;-34
2022/11/06 19:49:21;;;;;;;38.65;32.22;;;22.20;59.60;;;;;;4775409;55;21002;-44
2022/11/06 19:54:22;;;;;;;38.05;31.77;;;22.10;59.50;;;;;;4948944;55;21054;-37
2022/11/06 19:59:24;;;;;;;39.70;32.95;;;22.20;59.50;;;;;;4751167;55;21066;-35
2022/11/06 20:04:25;;;;;;;37.72;31.85;;;22.10;59.50;;;;;;4745607;59;21543;-39
2022/11/06 20:09:26;;;;;;;39.85;32.85;;;22.20;59.80;;;;;;4874588;55;21062;-39
2022/11/06 20:14:27;;;;;;;38.92;32.83;;;22.10;59.60;;;;;;4853657;55;21081;-40
2022/11/06 20:19:27;;;;;;;38.45;32.58;;;22.20;59.50;;;;;;4745311;59;21015;-35
2022/11/06 20:24:28;;;;;;;39.17;33.40;;;22.10;59.70;;;;;;4745091;59;21492;-39
2022/11/06 20:29:29;;;;;;;37.50;32.25;;;22.20;59.50;;;;;;4794485;55;21061;-37
2022/11/06 20:34:30;;;;;;;40.12;32.92;;;22.10;59.50;;;;;;4881076;55;21050;-39
2022/11/06 20:39:31;;;;;;;41.63;34.13;;;22.10;59.50;;;;;;4769353;55;21049;-35
2022/11/06 20:44:32;;;;;;;41.22;34.10;;;22.20;59.50;;;;;;4944725;55;20998;-39
2022/11/06 20:49:33;;;;;;;39.63;33.10;;;22.10;59.50;;;;;;4745210;55;21014;-40
2022/11/06 20:54:34;;;;;;;39.65;33.28;;;22.20;59.50;;;;;;4912791;55;21542;-40
2022/11/06 20:59:34;;;;;;;39.90;32.95;;;22.20;59.50;;;;;;4785808;55;21551;-39
2022/11/06 21:04:35;;;;;;;41.08;33.60;;;22.10;59.50;;;;;;4775232;55;21475;-40
2022/11/06 21:09:36;;;;;;;39.92;32.83;;;22.20;59.60;;;;;;4857011;55;21117;-38
2022/11/06 21:14:37;;;;;;;39.90;32.50;;;22.10;59.50;;;;;;4943986;55;21050;-41
2022/11/06 21:19:38;;;;;;;39.53;32.95;;;22.20;59.60;;;;;;4886805;55;21070;-41
2022/11/06 21:24:38;;;;;;;40.72;33.70;;;22.20;59.70;;;;;;4745585;55;20980;-38
2022/11/06 21:29:42;;;;;;;40.88;33.53;;;22.10;59.50;;;;;;4844561;55;21098;-33
2022/11/06 21:34:43;;;;;;;39.28;33.42;;;22.10;59.50;;;;;;4745836;59;21488;-39
2022/11/06 21:39:44;;;;;;;41.33;33.50;;;22.10;59.60;;;;;;4877547;55;20998;-41
2022/11/06 21:44:46;;;;;;;40.28;33.08;;;22.10;59.50;;;;;;4745527;55;21452;-36
2022/11/06 21:49:52;;;;;;;40.00;33.10;;;22.10;59.60;;;;;;4830706;55;20998;-37
2022/11/06 22:00:13;;;;;;;38.70;32.20;;;22.10;59.80;;;;;;4745239;55;21026;-46
2022/11/06 22:05:14;;;;;;;41.10;34.47;;;22.10;59.60;;;;;;4788045;55;21005;-36
2022/11/06 22:10:15;;;;;;;39.58;33.35;;;22.10;59.60;;;;;;4842863;55;21025;-39
2022/11/06 22:15:16;;;;;;;39.50;33.05;;;22.10;59.60;;;;;;4841532;55;21033;-44
2022/11/06 22:20:17;;;;;;;40.17;34.30;;;22.10;59.70;;;;;;4781887;55;21037;-39
2022/11/06 22:25:17;;;;;;;39.63;32.42;;;22.10;59.60;;;;;;4814861;55;21049;-38
2022/11/06 22:30:18;;;;;;;40.55;33.60;;;22.10;59.80;;;;;;4886106;55;20994;-45
2022/11/06 22:35:19;;;;;;;39.80;32.63;;;22.10;59.60;;;;;;5046629;55;20994;-36
2022/11/06 22:40:20;;;;;;;38.78;32.78;;;22.10;59.60;;;;;;4745094;56;21137;-37
2022/11/06 22:45:21;;;;;;;37.03;31.37;;;22.10;59.60;;;;;;4779682;55;21001;-30
2022/11/06 22:50:21;;;;;;;39.42;33.17;;;22.10;60.00;;;;;;4775339;55;21093;-30
2022/11/06 22:55:22;;;;;;;40.55;33.55;;;22.10;59.70;;;;;;4843384;55;21017;-35
2022/11/06 23:00:24;;;;;;;41.22;33.75;;;22.10;59.60;;;;;;4862246;55;21575;-32
2022/11/06 23:05:25;;;;;;;40.33;32.72;;;22.10;59.70;;;;;;4823668;55;20990;-37
2022/11/06 23:10:28;;;;;;;40.42;33.90;;;22.10;59.70;;;;;;4772136;55;21516;-33
2022/11/06 23:15:29;;;;;;;38.60;32.30;;;22.20;59.70;;;;;;4998669;55;21146;-35
2022/11/06 23:20:32;;;;;;;39.05;32.63;;;22.10;59.80;;;;;;5089633;55;21038;-40
2022/11/06 23:25:33;;;;;;;36.17;30.58;;;22.10;59.70;;;;;;4855706;55;21539;-42
2022/11/06 23:30:34;;;;;;;40.45;32.80;;;22.10;59.80;;;;;;4845000;55;21069;-36
2022/11/06 23:35:35;;;;;;;39.88;32.83;;;22.10;59.70;;;;;;4843810;55;21013;-38
2022/11/06 23:40:35;;;;;;;42.22;33.20;;;22.10;59.70;;;;;;4795630;55;21006;-35
2022/11/06 23:45:48;;;;;;;38.25;32.00;;;22.10;59.70;;;;;;4745138;59;21065;-38
2022/11/06 23:50:49;;;;;;;38.75;32.75;;;22.10;59.70;;;;;;4783082;55;21568;-28
2022/11/06 23:55:49;;;;;;;38.20;31.60;;;22.10;59.80;;;;;;4826616;55;21078;-31
